| time (UTC) | temp C | wind direction | speed KPH | gust KPH | rain 1hr cm | rain 24hr cm | rain mn cm | humidity % | barometer mb |
| 20260505173525 | 0 | 235 | 1.6 | 1.6 | 0.00 | 0.08 | 0.08 | 97 | 1017.0 |
| 20260505173022 | 0 | 146 | 0.0 | 0.0 | 0.00 | 0.08 | 0.08 | 96 | 1016.8 |
| 20260505172520 | 0 | 132 | 0.0 | 0.0 | 0.00 | 0.08 | 0.08 | 96 | 1016.8 |
| 20260505172015 | 0 | 146 | 0.0 | 0.0 | 0.00 | 0.08 | 0.08 | 96 | 1016.4 |
| 20260505171510 | 0 | 119 | 0.0 | 0.0 | 0.00 | 0.08 | 0.08 | 96 | 1016.5 |
| 20260505171008 | 0 | 145 | 0.0 | 0.0 | 0.00 | 0.08 | 0.08 | 96 | 1016.5 |
| 20260505170504 | 0 | 117 | 0.0 | 1.6 | 0.00 | 0.08 | 0.08 | 96 | 1016.3 |
| 20260505165959 | 0 | 148 | 3.2 | 3.2 | 0.00 | 0.08 | 0.08 | 96 | 1016.3 |
| 20260505165455 | 0 | 115 | 6.4 | 6.4 | 0.00 | 0.08 | 0.08 | 96 | 1016.2 |
| 20260505164951 | 0 | 127 | 3.2 | 4.8 | 0.18 | 0.08 | 0.08 | 96 | 1016.3 |
| 20260505164448 | 0 | 54 | 3.2 | 3.2 | 0.18 | 0.08 | 0.08 | 95 | 1016.4 |
| 20260505163946 | 0 | 355 | 4.8 | 4.8 | 0.18 | 0.05 | 0.05 | 95 | 1016.7 |
| 20260505163444 | 0 | 21 | 6.4 | 6.4 | 0.18 | 0.05 | 0.05 | 95 | 1016.3 |
| 20260505162943 | 0 | 3 | 8.0 | 9.7 | 0.18 | 0.05 | 0.05 | 94 | 1016.8 |
| 20260505162439 | 0 | 352 | 9.7 | 11.3 | 0.00 | 0.03 | 0.03 | 94 | 1016.5 |
| 20260505161935 | 1 | 358 | 14.5 | 17.7 | 0.00 | 0.03 | 0.03 | 93 | 1016.5 |
| 20260505161432 | 1 | 23 | 3.2 | 4.8 | 0.13 | 0.03 | 0.03 | 92 | 1016.5 |
| 20260505160930 | 1 | 7 | 8.0 | 9.7 | 0.13 | 0.03 | 0.03 | 92 | 1016.4 |
| 20260505160428 | 2 | 23 | 6.4 | 6.4 | 0.00 | 0.00 | 0.00 | 92 | 1016.4 |
| 20260505152859 | 2 | 349 | 8.0 | 9.7 | 0.00 | 0.00 | 0.00 | 89 | 1016.0 |
| 20260505152355 | 2 | 71 | 4.8 | 4.8 | 0.00 | 0.00 | 0.00 | 87 | 1016.3 |
| 20260505151855 | 2 | 56 | 8.0 | 9.7 | 0.00 | 0.00 | 0.00 | 87 | 1016.2 |
| 20260505151352 | 2 | 70 | 3.2 | 4.8 | 0.00 | 0.00 | 0.00 | 87 | 1015.9 |
| 20260505150849 | 2 | 354 | 6.4 | 6.4 | 0.00 | 0.00 | 0.00 | 87 | 1015.9 |
| 20260505150347 | 2 | 89 | 3.2 | 4.8 | 0.00 | 0.00 | 0.00 | 87 | 1016.0 |
| 20260505140316 | 3 | 44 | 3.2 | 4.8 | 0.00 | 0.00 | 0.00 | 79 | 1015.8 |
| 20260505130234 | 3 | 1 | 8.0 | 9.7 | 0.00 | 0.00 | 0.00 | 74 | 1015.6 |
| 20260505124724 | 3 | 12 | 8.0 | 11.3 | 0.00 | 0.00 | 0.00 | 75 | 1015.2 |
| 20260505124221 | 2 | 14 | 8.0 | 11.3 | 0.00 | 0.00 | 0.00 | 75 | 1015.3 |
| 20260505123716 | 3 | 12 | 8.0 | 11.3 | 0.00 | 0.00 | 0.00 | 76 | 1015.2 |
| 20260505123214 | 2 | 349 | 6.4 | 6.4 | 0.00 | 0.00 | 0.00 | 76 | 1015.2 |
| 20260505122711 | 2 | 43 | 1.6 | 1.6 | 0.00 | 0.00 | 0.00 | 78 | 1015.1 |
| 20260505122208 | 2 | 346 | 3.2 | 4.8 | 0.00 | 0.00 | 0.00 | 78 | 1015.1 |
| 20260505121704 | 2 | 352 | 1.6 | 1.6 | 0.00 | 0.00 | 0.00 | 78 | 1015.2 |
| 20260505121200 | 2 | 221 | 1.6 | 1.6 | 0.00 | 0.00 | 0.00 | 78 | 1015.4 |
| 20260505120658 | 2 | 246 | 3.2 | 4.8 | 0.00 | 0.00 | 0.00 | 77 | 1015.1 |
| 20260505120154 | 2 | 269 | 4.8 | 4.8 | 0.00 | 0.00 | 0.00 | 77 | 1015.2 |
| 20260505115652 | 2 | 279 | 3.2 | 4.8 | 0.00 | 0.00 | 0.00 | 78 | 1014.9 |
| 20260505115151 | 3 | 249 | 4.8 | 4.8 | 0.00 | 0.00 | 0.00 | 77 | 1014.8 |
| 20260505114647 | 3 | 214 | 1.6 | 1.6 | 0.00 | 0.00 | 0.00 | 77 | 1014.8 |
| 20260505114144 | 2 | 245 | 3.2 | 3.2 | 0.00 | 0.00 | 0.00 | 81 | 1014.5 |
| 20260505113640 | 1 | 189 | 0.0 | 0.0 | 0.00 | 0.00 | 0.00 | 84 | 1014.2 |
| 20260505113137 | 1 | 181 | 0.0 | 0.0 | 0.00 | 0.00 | 0.00 | 84 | 1014.1 |
| 20260505112633 | 1 | 185 | 1.6 | 1.6 | 0.00 | 0.00 | 0.00 | 84 | 1014.3 |
| 20260505112131 | 1 | 22 | 0.0 | 0.0 | 0.00 | 0.00 | 0.00 | 84 | 1014.3 |
| 20260505111626 | 1 | 22 | 0.0 | 0.0 | 0.00 | 0.00 | 0.00 | 84 | 1014.5 |
| 20260505111122 | 1 | 21 | 0.0 | 0.0 | 0.00 | 0.00 | 0.00 | 83 | 1014.6 |
| 20260505110618 | 2 | 357 | 0.0 | 0.0 | 0.00 | 0.00 | 0.00 | 82 | 1014.6 |
| 20260505110115 | 2 | 358 | 4.8 | 4.8 | 0.00 | 0.00 | 0.00 | 82 | 1014.6 |
| 20260505102051 | 3 | 255 | 3.2 | 3.2 | 0.00 | 0.00 | 0.00 | 79 | 1014.6 |
| 20260505101549 | 4 | 19 | 4.8 | 4.8 | 0.00 | 0.00 | 0.00 | 77 | 1014.6 |
| 20260505101045 | 3 | 291 | 3.2 | 3.2 | 0.00 | 0.00 | 0.00 | 79 | 1014.8 |
| 20260505100542 | 4 | 276 | 1.6 | 1.6 | 0.00 | 0.00 | 0.00 | 78 | 1014.3 |
| 20260505100039 | 3 | 47 | 1.6 | 1.6 | 0.00 | 0.00 | 0.00 | 78 | 1014.7 |
| 20260505095535 | 4 | 190 | 0.0 | 0.0 | 0.00 | 0.00 | 0.00 | 78 | 1014.5 |
| 20260505095032 | 3 | 314 | 0.0 | 1.6 | 0.00 | 0.00 | 0.00 | 78 | 1014.3 |
| 20260505094528 | 3 | 345 | 3.2 | 4.8 | 0.00 | 0.00 | 0.00 | 80 | 1014.3 |
| 20260505094025 | 3 | 112 | 1.6 | 3.2 | 0.00 | 0.00 | 0.00 | 82 | 1014.3 |
| 20260505093521 | 3 | 93 | 1.6 | 1.6 | 0.00 | 0.00 | 0.00 | 81 | 1014.2 |
| 20260505093019 | 3 | 55 | 3.2 | 3.2 | 0.00 | 0.00 | 0.00 | 81 | 1014.2 |
| 20260505092516 | 3 | 69 | 1.6 | 3.2 | 0.00 | 0.00 | 0.00 | 79 | 1014.0 |
| 20260505092014 | 3 | 89 | 1.6 | 1.6 | 0.00 | 0.00 | 0.00 | 78 | 1013.8 |
| 20260505091511 | 4 | 119 | 1.6 | 3.2 | 0.00 | 0.00 | 0.00 | 75 | 1014.0 |
| 20260505091009 | 4 | 103 | 1.6 | 3.2 | 0.00 | 0.00 | 0.00 | 74 | 1014.0 |
| 20260505090507 | 4 | 130 | 0.0 | 0.0 | 0.00 | 0.00 | 0.00 | 74 | 1013.7 |
| 20260505090004 | 4 | 132 | 0.0 | 0.0 | 0.00 | 0.00 | 0.00 | 74 | 1013.7 |
| 20260505085502 | 5 | 119 | 0.0 | 1.6 | 0.00 | 0.00 | 0.00 | 71 | 1013.5 |
| 20260505085000 | 5 | 114 | 1.6 | 1.6 | 0.00 | 0.00 | 0.00 | 70 | 1013.6 |
| 20260505084458 | 6 | 99 | 1.6 | 1.6 | 0.00 | 0.00 | 0.00 | 70 | 1013.7 |
| 20260505083955 | 6 | 128 | 0.0 | 1.6 | 0.00 | 0.00 | 0.00 | 70 | 1013.8 |
| 20260505083452 | 6 | 129 | 0.0 | 0.0 | 0.00 | 0.00 | 0.00 | 70 | 1013.7 |
| 20260505082949 | 6 | 129 | 0.0 | 0.0 | 0.00 | 0.00 | 0.00 | 70 | 1013.7 |
| 20260505082444 | 6 | 135 | 1.6 | 1.6 | 0.00 | 0.00 | 0.00 | 69 | 1013.7 |
| 20260505081941 | 6 | 157 | 0.0 | 0.0 | 0.00 | 0.00 | 0.00 | 69 | 1014.0 |
| 20260505081438 | 6 | 169 | 0.0 | 1.6 | 0.00 | 0.00 | 0.00 | 67 | 1013.7 |
| 20260505080935 | 7 | 125 | 3.2 | 4.8 | 0.00 | 0.00 | 0.00 | 66 | 1013.5 |
| 20260505080431 | 7 | 152 | 3.2 | 3.2 | 0.00 | 0.00 | 0.00 | 67 | 1013.7 |
| 20260505075926 | 6 | 164 | 3.2 | 3.2 | 0.00 | 0.00 | 0.00 | 70 | 1013.8 |
| 20260505075424 | 6 | 153 | 3.2 | 3.2 | 0.00 | 0.00 | 0.00 | 67 | 1013.7 |
| 20260505074921 | 7 | 128 | 6.4 | 6.4 | 0.00 | 0.00 | 0.00 | 64 | 1014.2 |
| 20260505074419 | 8 | 139 | 1.6 | 1.6 | 0.00 | 0.00 | 0.00 | 63 | 1014.2 |
| 20260505073915 | 8 | 69 | 3.2 | 4.8 | 0.00 | 0.00 | 0.00 | 64 | 1014.3 |
| 20260505073413 | 8 | 101 | 3.2 | 4.8 | 0.00 | 0.00 | 0.00 | 66 | 1014.3 |
| 20260505072910 | 8 | 93 | 1.6 | 3.2 | 0.00 | 0.00 | 0.00 | 65 | 1014.3 |
| 20260505072406 | 8 | 132 | 4.8 | 4.8 | 0.00 | 0.00 | 0.00 | 65 | 1014.3 |
| 20260505071903 | 8 | 141 | 8.0 | 9.7 | 0.00 | 0.00 | 0.00 | 64 | 1014.2 |
| 20260505071358 | 8 | 128 | 9.7 | 12.9 | 0.00 | 0.00 | 0.00 | 65 | 1014.3 |
| 20260505070856 | 8 | 126 | 4.8 | 4.8 | 0.00 | 0.00 | 0.00 | 65 | 1014.1 |
| 20260505070347 | 8 | 127 | 9.7 | 11.3 | 0.00 | 0.00 | 0.00 | 64 | 1014.1 |
| 20260505065842 | 8 | 146 | 8.0 | 9.7 | 0.00 | 0.00 | 0.00 | 65 | 1014.3 |
| 20260505065340 | 8 | 147 | 11.3 | 12.9 | 0.00 | 0.00 | 0.00 | 64 | 1014.1 |
| 20260505064837 | 8 | 148 | 6.4 | 9.7 | 0.00 | 0.00 | 0.00 | 64 | 1014.2 |
| 20260505064333 | 8 | 138 | 12.9 | 14.5 | 0.00 | 0.00 | 0.00 | 63 | 1014.3 |
| 20260505063832 | 8 | 92 | 6.4 | 9.7 | 0.00 | 0.00 | 0.00 | 63 | 1014.2 |
| 20260505063327 | 8 | 147 | 6.4 | 6.4 | 0.00 | 0.00 | 0.00 | 63 | 1014.0 |
| 20260505062824 | 8 | 151 | 9.7 | 11.3 | 0.00 | 0.00 | 0.00 | 65 | 1014.2 |
| 20260505062322 | 8 | 134 | 12.9 | 14.5 | 0.00 | 0.00 | 0.00 | 66 | 1014.0 |
| 20260505061818 | 8 | 147 | 6.4 | 6.4 | 0.00 | 0.00 | 0.00 | 66 | 1014.0 |
| 20260505061317 | 8 | 175 | 11.3 | 14.5 | 0.00 | 0.00 | 0.00 | 64 | 1013.8 |
| 20260505060814 | 9 | 130 | 16.1 | 20.9 | 0.00 | 0.00 | 0.00 | 64 | 1014.0 |
| 20260505060310 | 9 | 132 | 6.4 | 9.7 | 0.00 | 0.00 | 0.00 | 64 | 1014.2 |
| 20260505055806 | 9 | 111 | 4.8 | 9.7 | 0.00 | 0.00 | 0.00 | 63 | 1014.1 |
| 20260505055303 | 10 | 119 | 6.4 | 9.7 | 0.00 | 0.00 | 0.00 | 60 | 1014.0 |
| 20260505054800 | 10 | 95 | 9.7 | 12.9 | 0.00 | 0.00 | 0.00 | 62 | 1013.8 |
| 20260505054257 | 10 | 135 | 8.0 | 9.7 | 0.00 | 0.00 | 0.00 | 58 | 1013.8 |
| 20260505053755 | 10 | 132 | 17.7 | 20.9 | 0.00 | 0.00 | 0.00 | 62 | 1013.7 |
| 20260505053252 | 10 | 135 | 9.7 | 11.3 | 0.00 | 0.00 | 0.00 | 64 | 1014.1 |
| 20260505052749 | 10 | 149 | 6.4 | 9.7 | 0.00 | 0.00 | 0.00 | 60 | 1014.2 |
| 20260505052246 | 10 | 134 | 3.2 | 4.8 | 0.00 | 0.00 | 0.00 | 58 | 1014.3 |
| 20260505051743 | 10 | 132 | 3.2 | 4.8 | 0.00 | 0.00 | 0.00 | 60 | 1014.2 |
| 20260505051241 | 10 | 122 | 3.2 | 3.2 | 0.00 | 0.00 | 0.00 | 57 | 1014.1 |
| 20260505050738 | 10 | 73 | 6.4 | 6.4 | 0.00 | 0.00 | 0.00 | 57 | 1014.3 |
| 20260505050236 | 10 | 77 | 8.0 | 11.3 | 0.00 | 0.00 | 0.00 | 55 | 1014.2 |
| 20260505041700 | 12 | 132 | 1.6 | 1.6 | 0.00 | 0.00 | 0.00 | 46 | 1013.8 |
| 20260505041158 | 12 | 169 | 3.2 | 3.2 | 0.00 | 0.00 | 0.00 | 45 | 1014.1 |
| 20260505040655 | 12 | 181 | 1.6 | 3.2 | 0.00 | 0.00 | 0.00 | 45 | 1014.1 |
| 20260505040152 | 12 | 257 | 3.2 | 4.8 | 0.00 | 0.00 | 0.00 | 45 | 1013.8 |
| 20260505035648 | 12 | 250 | 4.8 | 4.8 | 0.00 | 0.00 | 0.00 | 45 | 1014.0 |
| 20260505035144 | 12 | 264 | 9.7 | 11.3 | 0.00 | 0.00 | 0.00 | 44 | 1013.8 |
| 20260505034640 | 12 | 232 | 3.2 | 4.8 | 0.00 | 0.00 | 0.00 | 44 | 1013.8 |
| 20260505034133 | 12 | 243 | 9.7 | 12.9 | 0.00 | 0.00 | 0.00 | 44 | 1013.6 |
| 20260505033629 | 12 | 234 | 3.2 | 6.4 | 0.00 | 0.00 | 0.00 | 45 | 1013.5 |
| 20260505033127 | 12 | 282 | 6.4 | 9.7 | 0.00 | 0.00 | 0.00 | 45 | 1013.5 |
| 20260505032625 | 12 | 242 | 8.0 | 11.3 | 0.00 | 0.00 | 0.00 | 45 | 1013.6 |
| 20260505032121 | 12 | 216 | 4.8 | 4.8 | 0.00 | 0.00 | 0.00 | 44 | 1013.5 |
| 20260505031619 | 12 | 273 | 14.5 | 16.1 | 0.00 | 0.00 | 0.00 | 44 | 1013.4 |
| 20260505031114 | 12 | 288 | 9.7 | 14.5 | 0.00 | 0.00 | 0.00 | 44 | 1013.1 |
| 20260505030612 | 12 | 283 | 8.0 | 9.7 | 0.00 | 0.00 | 0.00 | 44 | 1013.1 |
| 20260505030108 | 12 | 222 | 9.7 | 12.9 | 0.00 | 0.00 | 0.00 | 44 | 1013.1 |
| 20260505025603 | 12 | 276 | 9.7 | 12.9 | 0.00 | 0.00 | 0.00 | 44 | 1012.9 |
| 20260505025103 | 12 | 227 | 4.8 | 6.4 | 0.00 | 0.00 | 0.00 | 43 | 1013.2 |
| 20260505024559 | 12 | 269 | 9.7 | 11.3 | 0.00 | 0.00 | 0.00 | 43 | 1012.9 |
| 20260505024057 | 12 | 251 | 8.0 | 11.3 | 0.00 | 0.00 | 0.00 | 42 | 1012.9 |
| 20260505023554 | 13 | 225 | 9.7 | 17.7 | 0.00 | 0.00 | 0.00 | 41 | 1012.6 |
| 20260505023051 | 13 | 198 | 12.9 | 16.1 | 0.00 | 0.00 | 0.00 | 41 | 1012.4 |
| 20260505022548 | 13 | 239 | 9.7 | 12.9 | 0.00 | 0.00 | 0.00 | 41 | 1012.4 |
| 20260505022045 | 13 | 279 | 11.3 | 16.1 | 0.00 | 0.00 | 0.00 | 41 | 1012.3 |
| 20260505021542 | 13 | 271 | 9.7 | 14.5 | 0.00 | 0.00 | 0.00 | 41 | 1012.3 |
| 20260505021038 | 13 | 258 | 8.0 | 12.9 | 0.00 | 0.00 | 0.00 | 40 | 1012.6 |
| 20260505020533 | 13 | 267 | 11.3 | 17.7 | 0.00 | 0.00 | 0.00 | 40 | 1012.3 |
| 20260505020030 | 14 | 266 | 9.7 | 14.5 | 0.00 | 0.00 | 0.00 | 40 | 1012.4 |
| 20260505015527 | 14 | 254 | 4.8 | 9.7 | 0.00 | 0.00 | 0.00 | 40 | 1012.4 |
| 20260505015024 | 15 | 233 | 6.4 | 9.7 | 0.00 | 0.00 | 0.00 | 39 | 1012.3 |
| 20260505014521 | 15 | 228 | 6.4 | 9.7 | 0.00 | 0.00 | 0.00 | 38 | 1012.4 |
| 20260505014018 | 15 | 282 | 8.0 | 11.3 | 0.00 | 0.00 | 0.00 | 37 | 1012.3 |
| 20260505013515 | 15 | 218 | 6.4 | 9.7 | 0.00 | 0.00 | 0.00 | 37 | 1012.1 |
| 20260505013012 | 16 | 181 | 4.8 | 9.7 | 0.00 | 0.00 | 0.00 | 35 | 1012.0 |
| 20260505012510 | 16 | 177 | 6.4 | 6.4 | 0.00 | 0.00 | 0.00 | 28 | 1011.9 |
| 20260505012007 | 15 | 66 | 9.7 | 11.3 | 0.00 | 0.00 | 0.00 | 32 | 1011.7 |
| 20260505011502 | 15 | 12 | 9.7 | 12.9 | 0.00 | 0.00 | 0.00 | 29 | 1011.5 |
| 20260505011000 | 16 | 5 | 25.7 | 27.4 | 0.00 | 0.00 | 0.00 | 30 | 1011.4 |
| 20260505010455 | 16 | 54 | 8.0 | 11.3 | 0.00 | 0.00 | 0.00 | 27 | 1011.9 |
| 20260505005952 | 18 | 354 | 16.1 | 20.9 | 0.00 | 0.00 | 0.00 | 24 | 1012.0 |
| 20260505005448 | 18 | 291 | 8.0 | 11.3 | 0.00 | 0.00 | 0.00 | 24 | 1011.5 |
| 20260505004946 | 19 | 294 | 6.4 | 9.7 | 0.00 | 0.00 | 0.00 | 24 | 1011.9 |
| 20260505004443 | 18 | 261 | 4.8 | 4.8 | 0.00 | 0.00 | 0.00 | 24 | 1011.7 |
| 20260505003940 | 19 | 269 | 9.7 | 11.3 | 0.00 | 0.00 | 0.00 | 27 | 1011.8 |
| 20260505003437 | 18 | 182 | 3.2 | 6.4 | 0.00 | 0.00 | 0.00 | 29 | 1012.0 |
| 20260505002933 | 18 | 213 | 17.7 | 22.5 | 0.00 | 0.00 | 0.00 | 30 | 1012.0 |
| 20260505002429 | 17 | 224 | 17.7 | 24.1 | 0.00 | 0.00 | 0.00 | 33 | 1011.8 |
| 20260505001928 | 17 | 223 | 9.7 | 12.9 | 0.00 | 0.00 | 0.00 | 32 | 1011.8 |
| 20260505001425 | 17 | 277 | 14.5 | 24.1 | 0.00 | 0.00 | 0.00 | 33 | 1011.9 |
| 20260505000922 | 17 | 284 | 16.1 | 24.1 | 0.00 | 0.00 | 0.00 | 33 | 1012.1 |
| 20260505000420 | 17 | 262 | 11.3 | 12.9 | 0.00 | 0.00 | 0.00 | 32 | 1012.3 |
| 20260504235916 | 18 | 173 | 8.0 | 11.3 | 0.00 | 0.00 | 0.00 | 31 | 1012.0 |
| 20260504235414 | 17 | 218 | 14.5 | 17.7 | 0.00 | 0.00 | 0.00 | 31 | 1012.1 |
| 20260504234910 | 18 | 194 | 11.3 | 12.9 | 0.00 | 0.00 | 0.00 | 31 | 1012.0 |
| 20260504234408 | 18 | 213 | 6.4 | 6.4 | 0.00 | 0.00 | 0.00 | 24 | 1011.8 |
| 20260504233904 | 17 | 170 | 0.0 | 0.0 | 0.00 | 0.00 | 0.00 | 25 | 1011.9 |
| 20260504233359 | 18 | 214 | 4.8 | 4.8 | 0.00 | 0.00 | 0.00 | 24 | 1012.1 |
| 20260504232856 | 18 | 260 | 6.4 | 6.4 | 0.00 | 0.00 | 0.00 | 23 | 1011.9 |
| 20260504232354 | 18 | 2 | 11.3 | 14.5 | 0.00 | 0.00 | 0.00 | 24 | 1012.1 |
| 20260504231850 | 17 | 328 | 6.4 | 9.7 | 0.00 | 0.00 | 0.00 | 25 | 1011.8 |
| 20260504231347 | 18 | 324 | 8.0 | 9.7 | 0.00 | 0.00 | 0.00 | 24 | 1011.8 |
| 20260504230843 | 18 | 258 | 8.0 | 11.3 | 0.00 | 0.00 | 0.00 | 23 | 1011.9 |
| 20260504230341 | 18 | 339 | 1.6 | 3.2 | 0.00 | 0.00 | 0.00 | 21 | 1011.9 |
| 20260504225839 | 20 | 234 | 8.0 | 12.9 | 0.00 | 0.00 | 0.00 | 21 | 1011.7 |
| 20260504225335 | 19 | 289 | 11.3 | 12.9 | 0.00 | 0.00 | 0.00 | 22 | 1011.9 |
| 20260504224833 | 18 | 258 | 4.8 | 6.4 | 0.00 | 0.00 | 0.00 | 24 | 1011.8 |
| 20260504224330 | 18 | 279 | 4.8 | 9.7 | 0.00 | 0.00 | 0.00 | 23 | 1011.9 |
| 20260504223827 | 18 | 273 | 3.2 | 4.8 | 0.00 | 0.00 | 0.00 | 23 | 1012.0 |
| 20260504223322 | 18 | 285 | 9.7 | 11.3 | 0.00 | 0.00 | 0.00 | 22 | 1011.9 |
| 20260504222819 | 18 | 280 | 11.3 | 14.5 | 0.00 | 0.00 | 0.00 | 23 | 1011.9 |
| 20260504222316 | 18 | 296 | 14.5 | 16.1 | 0.00 | 0.00 | 0.00 | 23 | 1011.9 |
| 20260504221814 | 18 | 297 | 17.7 | 24.1 | 0.00 | 0.00 | 0.00 | 23 | 1012.1 |
| 20260504221310 | 20 | 311 | 14.5 | 20.9 | 0.00 | 0.00 | 0.00 | 22 | 1011.9 |
| 20260504220808 | 18 | 186 | 3.2 | 4.8 | 0.00 | 0.00 | 0.00 | 22 | 1012.1 |
| 20260504220304 | 18 | 257 | 6.4 | 6.4 | 0.00 | 0.00 | 0.00 | 21 | 1012.3 |
| 20260504215802 | 19 | 285 | 9.7 | 12.9 | 0.00 | 0.00 | 0.00 | 19 | 1012.0 |
| 20260504215258 | 20 | 252 | 4.8 | 6.4 | 0.00 | 0.00 | 0.00 | 19 | 1012.3 |
| 20260504214754 | 20 | 288 | 9.7 | 11.3 | 0.00 | 0.00 | 0.00 | 19 | 1012.3 |
| 20260504214251 | 20 | 216 | 3.2 | 3.2 | 0.00 | 0.00 | 0.00 | 19 | 1012.4 |
| 20260504213747 | 20 | 257 | 19.3 | 24.1 | 0.00 | 0.00 | 0.00 | 19 | 1012.3 |
| 20260504213243 | 19 | 322 | 3.2 | 4.8 | 0.00 | 0.00 | 0.00 | 20 | 1012.9 |
| 20260504212741 | 20 | 283 | 8.0 | 12.9 | 0.00 | 0.00 | 0.00 | 20 | 1012.6 |
| 20260504212237 | 20 | 196 | 1.6 | 3.2 | 0.00 | 0.00 | 0.00 | 21 | 1012.7 |
| 20260504211735 | 20 | 175 | 3.2 | 4.8 | 0.00 | 0.00 | 0.00 | 20 | 1012.6 |
| 20260504211231 | 20 | 278 | 12.9 | 16.1 | 0.00 | 0.00 | 0.00 | 20 | 1012.6 |
| 20260504210728 | 20 | 276 | 11.3 | 14.5 | 0.00 | 0.00 | 0.00 | 20 | 1012.7 |
| 20260504210225 | 19 | 287 | 9.7 | 9.7 | 0.00 | 0.00 | 0.00 | 20 | 1013.0 |
| 20260504205722 | 18 | 291 | 4.8 | 9.7 | 0.00 | 0.00 | 0.00 | 21 | 1012.9 |
| 20260504205220 | 19 | 281 | 16.1 | 20.9 | 0.00 | 0.00 | 0.00 | 20 | 1013.1 |
| 20260504204718 | 18 | 335 | 16.1 | 20.9 | 0.00 | 0.00 | 0.00 | 20 | 1013.0 |
| 20260504204216 | 18 | 194 | 4.8 | 6.4 | 0.00 | 0.00 | 0.00 | 20 | 1013.1 |
| 20260504203715 | 20 | 282 | 14.5 | 20.9 | 0.00 | 0.00 | 0.00 | 20 | 1013.1 |
| 20260504203212 | 19 | 10 | 8.0 | 11.3 | 0.00 | 0.00 | 0.00 | 20 | 1013.4 |
| 20260504202712 | 20 | 275 | 14.5 | 20.9 | 0.00 | 0.00 | 0.00 | 20 | 1013.0 |
| 20260504202209 | 19 | 300 | 12.9 | 16.1 | 0.00 | 0.00 | 0.00 | 20 | 1013.2 |
| 20260504201706 | 19 | 273 | 12.9 | 17.7 | 0.00 | 0.00 | 0.00 | 21 | 1013.2 |
| 20260504201204 | 20 | 292 | 19.3 | 22.5 | 0.00 | 0.00 | 0.00 | 21 | 1013.2 |
| 20260504200701 | 20 | 239 | 1.6 | 3.2 | 0.00 | 0.00 | 0.00 | 19 | 1013.4 |
| 20260504200157 | 18 | 294 | 4.8 | 6.4 | 0.00 | 0.00 | 0.00 | 21 | 1013.4 |
| 20260504195653 | 18 | 10 | 6.4 | 9.7 | 0.00 | 0.00 | 0.00 | 21 | 1013.5 |
| 20260504195149 | 20 | 200 | 9.7 | 11.3 | 0.00 | 0.00 | 0.00 | 20 | 1013.5 |
| 20260504194646 | 20 | 136 | 0.0 | 1.6 | 0.00 | 0.00 | 0.00 | 20 | 1013.6 |
| 20260504194142 | 18 | 289 | 8.0 | 11.3 | 0.00 | 0.00 | 0.00 | 21 | 1013.6 |
| 20260504193639 | 18 | 280 | 6.4 | 6.4 | 0.00 | 0.00 | 0.00 | 21 | 1013.7 |
| 20260504193137 | 19 | 251 | 6.4 | 9.7 | 0.00 | 0.00 | 0.00 | 20 | 1014.0 |
| 20260504192635 | 20 | 196 | 1.6 | 1.6 | 0.00 | 0.00 | 0.00 | 21 | 1014.0 |
| 20260504192133 | 19 | 234 | 4.8 | 4.8 | 0.00 | 0.00 | 0.00 | 22 | 1014.0 |
| 20260504191631 | 19 | 230 | 3.2 | 4.8 | 0.00 | 0.00 | 0.00 | 20 | 1013.8 |
| 20260504191127 | 20 | 235 | 6.4 | 6.4 | 0.00 | 0.00 | 0.00 | 20 | 1014.1 |
| 20260504190623 | 19 | 197 | 8.0 | 11.3 | 0.00 | 0.00 | 0.00 | 21 | 1014.1 |
| 20260504190120 | 19 | 7 | 0.0 | 0.0 | 0.00 | 0.00 | 0.00 | 19 | 1014.2 |
| 20260504185616 | 19 | 294 | 12.9 | 14.5 | 0.00 | 0.00 | 0.00 | 20 | 1014.5 |
| 20260504185113 | 18 | 15 | 6.4 | 9.7 | 0.00 | 0.00 | 0.00 | 20 | 1014.3 |
| 20260504184609 | 18 | 12 | 8.0 | 11.3 | 0.00 | 0.00 | 0.00 | 20 | 1014.3 |
| 20260504184104 | 19 | 305 | 3.2 | 6.4 | 0.00 | 0.00 | 0.00 | 20 | 1014.3 |
| 20260504183601 | 18 | 355 | 1.6 | 3.2 | 0.00 | 0.00 | 0.00 | 21 | 1014.3 |
| 20260504183059 | 18 | 301 | 1.6 | 4.8 | 0.00 | 0.00 | 0.00 | 22 | 1014.6 |
| 20260504182556 | 18 | 2 | 4.8 | 6.4 | 0.00 | 0.00 | 0.00 | 21 | 1014.7 |
| 20260504182053 | 17 | 51 | 0.0 | 0.0 | 0.00 | 0.00 | 0.00 | 21 | 1014.9 |
| 20260504181550 | 17 | 286 | 1.6 | 1.6 | 0.00 | 0.00 | 0.00 | 22 | 1014.9 |
| 20260504181048 | 18 | 342 | 4.8 | 6.4 | 0.00 | 0.00 | 0.00 | 22 | 1015.1 |
| 20260504180547 | 17 | 338 | 0.0 | 0.0 | 0.00 | 0.00 | 0.00 | 22 | 1015.1 |
| 20260504180046 | 17 | 287 | 4.8 | 4.8 | 0.00 | 0.00 | 0.00 | 21 | 1015.1 |
| 20260504175542 | 19 | 278 | 8.0 | 9.7 | 0.00 | 0.00 | 0.00 | 21 | 1015.2 |
| 20260504175039 | 20 | 275 | 0.0 | 1.6 | 0.00 | 0.00 | 0.00 | 22 | 1015.2 |
| 20260504174537 | 18 | 278 | 0.0 | 1.6 | 0.00 | 0.00 | 0.00 | 22 | 1015.2 |
| 20260504174034 | 18 | 113 | 1.6 | 1.6 | 0.00 | 0.00 | 0.00 | 21 | 1015.6 |